EHKD METAR and TAF | Updated Today

EHKD METAR

De Kooy Airport

Observation time: 5 min. ago

EHKD 062055Z AUTO 22011KT 190V250 9999 NCD 15/11 Q1026 BLU

Need help? Read our tutorial on how to read METARs or read the parsed version below.

De Kooy Airport (EHKD) METAR

  • Weather conditions on Thu, 06 Oct 2022 20:55:00 +0000 (5 min. ago):
  • Present conditions: Dry
  • Clouds: Nil cloud detected
  • Visibility: Greater than 10 km
  • Wind: 220 degrees at 11 knots
  • Temperature: 15 celsius
  • Dew point: 11 celsius
  • Pressure: 1026 millibars
  • Remarks: None


Useful to know...

EHKD TAF

De Kooy Airport

TAF EHKD 061618Z 0617/0705 22017KT 9999 FEW040
Observation time: 4:42 hr. ago
Need help? Read our tutorial on how to read TAFs or read the parsed version below.

Parsed version of TAF for De Kooy Airport (EHKD)

  • From 06 October at 17:00 UTC, to day 07 of the month at 05:00 UTC
  • Clouds: A few at 1219 meters
  • Visibility: Greater than 10 km
  • Wind: 220 degrees at 17